< < Back
Terminal Aerodrome Forecast


Current Version              Previous Versions:   1  2  3  4  5  6  7  8  9  

Terminal Aerodrome Forecast

317
FTUS42 KTAE 161600 AAA
TAFTLH
TAF AMD
KTLH 161601Z 1616/1712 24007KT P6SM BKN011 BKN025
      TEMPO 1618/1622 2SM +TSRA OVC025CB
     FM170000 29006KT 6SM -TSRA BKN025CB OVC100
     FM170400 36003KT P6SM SCT100 BKN250
     FM170800 00000KT P6SM SCT250=

Latest METAR

763
SAUS80 KWBC 170300
MTRTLH
METAR KTLH 170253Z 00000KT 10SM BKN250 24/23 A2999 RMK AO2 SLP155 LAST
AUGMENTED OBS T02390228 51004 $


USA.gov is the U.S. government's official web portal to all federal, state and local government web resources and services.